Aérodrome :
LOGIN :

S'inscrire | Disclaimer

   EN    FR    IT 

 










Légende :    VFR   VFR Marginal   IFR   IFR Intensif   IFR Très Intensif
Visi : 
Plafond : 
>= 8 km
>= 3000ft
5 à 8 km
1000 à 3000 ft
1500m à 5 km
500 à 1000 ft
800 à 1500m
200 à 500 ft
< 800m
< 200 ft
Symboles :   Orages  Brouillard  Fortes neiges  Fortes précipitations  Vent > 20 kt
SIGMETs :   Divers  Orages  Givrage  Turbulence  Onde Orograph.  Cendres Volcan.






- Altitude de l'aérodrome : 33 ft
- Code IATA : MHZ


EGUN - RAF Mildenhall

DERNIER METAR :
  • 291855Z 25010KT 9999 FEW050 SCT120 06/06 A3014 RMK AO2A SLP210 T00590059 $

METARs EXPIRÉS :
  • 291755Z 23008KT 9999 FEW040 BKN100 BKN200 06/06 A3012 RMK AO2A SLP203 T00610061 10090 20061 57014 $
  • 291655Z 23008KT 9999 FEW015 SCT040 BKN080 07/07 A3013 RMK AO2A SLP206 T00690069 $
  • 291555Z 25007KT 9999 SCT025 SCT040 BKN080 08/08 A3014 RMK AO2A SLP210 T00810081 $

TAF TAF EGUN
Valide du 29 à 12h jusqu'au 30 à 18h UTC


291200Z 2912/3018 24015KT 9999 FEW015 SCT025 BKN035 600502 510006 QNH3023INS
TEMPO 2912/2917 24010G20KT BKN015 BKN025
BECMG 2916/2917 26015KT 9999 FEW015 SCT050 BKN250 WS014/27035KT QNH3019INS
TEMPO 2917/2923 25010G20KT 510006
BECMG 2922/2923 26013KT 8000 BR FEW015 BKN025 WS019/28040KT QNH3013INS
TEMPO 2923/3007 27010G20KT BKN015 510003 530303
BECMG 3007/3009 27015G25KT 9999 NSW SCT015 SCT050 BKN250 510003 530303 QNH3018INS
BECMG 3016/3017 29015KT 9999 FEW015 BKN050 BKN250 QNH3024INS TX08/2914Z TN04/3007Z



MET'MAP, la Météo Aéronautique d'un coup d'oeil ! - Copyright ORBIFLY Décembre 2007 - Disclaimer

ORBIFLY MET'MAP TEAM :

Programmation & Développement : Alexandra Zaïnal
Sur une idée originale de : Baudouin d'Aumeries
Soutien technique & logistique : Manuel Goepfert
Assistance : Marc-Olivier Méhu




SOURCES & CREDITS :

   NOAA